Time;durP1;ratioP1;P1;durP2;ratioP2;P2;SDS_P1;SDS_P2;PMS_P1;PMS_P2;Temp;Humidity;BMP_temperature;BMP_pressure;BME280_temperature;BME280_humidity;BME280_pressure;Samples;Min_cycle;Max_cycle;Signal;HPM_P1;HPM_P2
2023/04/12 00:01:52;;;;;;;10.15;4.60;;;2.90;99.90;;;;;;5054246;28;20096;-58
2023/04/12 00:04:17;;;;;;;10.30;4.18;;;2.90;99.90;;;;;;5053815;28;20059;-56
2023/04/12 00:06:47;;;;;;;4.85;4.35;;;2.80;99.90;;;;;;5052620;28;20037;-58
2023/04/12 00:09:14;;;;;;;4.20;3.90;;;2.80;99.90;;;;;;5053770;28;20029;-53
2023/04/12 00:11:40;;;;;;;6.13;3.83;;;2.70;99.90;;;;;;5054035;28;20108;-57
2023/04/12 00:14:06;;;;;;;7.35;3.50;;;2.70;99.90;;;;;;5053537;28;20128;-59
2023/04/12 00:16:32;;;;;;;5.25;3.80;;;2.60;99.90;;;;;;5053830;28;20044;-58
2023/04/12 00:18:58;;;;;;;4.65;3.92;;;2.60;99.90;;;;;;5053641;28;20047;-58
2023/04/12 00:21:24;;;;;;;6.35;4.03;;;2.50;99.90;;;;;;5053590;28;20028;-59
2023/04/12 00:23:50;;;;;;;7.00;3.88;;;2.50;99.90;;;;;;5053697;28;20033;-55
2023/04/12 00:26:15;;;;;;;88.50;5.53;;;2.40;99.90;;;;;;5053561;28;20055;-59
2023/04/12 00:28:41;;;;;;;89.55;6.47;;;2.30;99.90;;;;;;5053726;28;20029;-59
2023/04/12 00:31:07;;;;;;;186.82;8.32;;;2.30;99.90;;;;;;5053462;28;20025;-58
2023/04/12 00:33:36;;;;;;;225.48;10.02;;;2.20;99.90;;;;;;5053484;28;20025;-59
2023/04/12 00:36:02;;;;;;;299.65;11.15;;;2.10;99.90;;;;;;5053214;28;20519;-55
2023/04/12 00:38:28;;;;;;;206.20;8.05;;;2.00;99.90;;;;;;5053325;28;20106;-57
2023/04/12 00:40:54;;;;;;;86.93;5.60;;;2.10;99.90;;;;;;5053467;28;20056;-58
2023/04/12 00:43:20;;;;;;;23.25;4.78;;;2.10;99.90;;;;;;5053214;28;20021;-56
2023/04/12 00:45:46;;;;;;;97.25;6.38;;;2.10;99.90;;;;;;5052904;28;20036;-56
2023/04/12 00:48:12;;;;;;;87.03;6.32;;;2.10;99.90;;;;;;5053082;28;20044;-58
2023/04/12 00:50:46;;;;;;;78.60;5.22;;;2.10;99.90;;;;;;5053266;28;20025;-57
2023/04/12 00:53:16;;;;;;;106.03;6.22;;;2.00;99.90;;;;;;5052935;28;20024;-58
2023/04/12 00:55:45;;;;;;;226.32;11.27;;;1.90;99.90;;;;;;5052970;28;20530;-58
2023/04/12 00:58:13;;;;;;;37.08;4.57;;;1.90;99.90;;;;;;5053114;28;20104;-58
2023/04/12 01:00:39;;;;;;;115.25;7.90;;;1.90;99.90;;;;;;5053024;28;20051;-56
2023/04/12 01:03:07;;;;;;;91.57;6.40;;;1.90;99.90;;;;;;5052889;28;20021;-57
2023/04/12 01:05:42;;;;;;;165.98;8.43;;;1.90;99.90;;;;;;5052751;28;20048;-58
2023/04/12 01:08:27;;;;;;;128.50;7.35;;;1.80;99.90;;;;;;5052787;28;20021;-59
2023/04/12 01:11:06;;;;;;;130.18;7.18;;;1.80;99.90;;;;;;5052818;28;20025;-57
2023/04/12 01:13:39;;;;;;;132.15;6.97;;;1.70;99.90;;;;;;5052729;28;20110;-58
2023/04/12 01:16:39;;;;;;;271.92;10.50;;;1.70;99.90;;;;;;5052594;28;20029;-58
2023/04/12 01:19:34;;;;;;;153.95;7.10;;;1.60;99.90;;;;;;5051163;28;20123;-59
2023/04/12 01:22:12;;;;;;;176.52;9.50;;;1.50;99.90;;;;;;5046553;28;20439;-58
2023/04/12 01:48:12;;;;;;;133.63;7.00;;;1.40;99.90;;;;;;5043895;28;20025;-57
2023/04/12 01:50:50;;;;;;;67.72;5.45;;;1.50;99.90;;;;;;5064042;28;20025;-56
2023/04/12 01:53:18;;;;;;;25.42;4.38;;;1.50;99.90;;;;;;5032123;28;20049;-53
2023/04/12 01:55:46;;;;;;;51.28;5.38;;;1.50;99.90;;;;;;5032029;28;20556;-59
2023/04/12 01:58:16;;;;;;;76.82;5.43;;;1.50;99.90;;;;;;5031305;28;20018;-56
2023/04/12 02:00:42;;;;;;;55.10;4.60;;;1.40;99.90;;;;;;5032026;28;20392;-56
2023/04/12 02:03:08;;;;;;;58.25;4.97;;;1.50;99.90;;;;;;5031781;28;20079;-59
2023/04/12 02:05:34;;;;;;;45.08;5.38;;;1.40;99.90;;;;;;5031946;28;20404;-59
2023/04/12 02:08:01;;;;;;;91.78;6.28;;;1.50;99.90;;;;;;5031922;28;20489;-57
2023/04/12 02:10:29;;;;;;;67.20;5.50;;;1.40;99.90;;;;;;5031881;28;20368;-57
2023/04/12 02:12:57;;;;;;;51.72;5.18;;;1.40;99.90;;;;;;5031481;28;20386;-56
2023/04/12 02:15:22;;;;;;;106.25;7.28;;;1.40;99.90;;;;;;5031946;28;20477;-58
2023/04/12 02:17:52;;;;;;;121.25;9.05;;;1.40;99.90;;;;;;5031588;28;20053;-57
2023/04/12 02:20:19;;;;;;;57.13;6.07;;;1.30;99.90;;;;;;5031541;28;20025;-57
2023/04/12 02:22:45;;;;;;;24.92;4.97;;;1.30;99.90;;;;;;5031729;28;20028;-58
2023/04/12 02:25:11;;;;;;;18.02;5.35;;;1.30;99.90;;;;;;5031467;28;20072;-55
2023/04/12 02:27:37;;;;;;;56.88;5.85;;;1.30;99.90;;;;;;5063624;28;20022;-54
2023/04/12 02:30:04;;;;;;;34.85;4.75;;;1.20;99.90;;;;;;5031506;28;20541;-57
2023/04/12 02:32:29;;;;;;;38.42;4.75;;;1.20;99.90;;;;;;5031642;28;20404;-57
2023/04/12 02:34:57;;;;;;;8.95;4.80;;;1.20;99.90;;;;;;5046840;28;20025;-58
2023/04/12 02:37:26;;;;;;;8.23;4.80;;;1.10;99.90;;;;;;5031511;28;20400;-57
2023/04/12 02:39:55;;;;;;;14.50;4.88;;;1.10;99.90;;;;;;5031595;28;20014;-56
2023/04/12 02:42:21;;;;;;;30.05;5.18;;;1.20;99.90;;;;;;5031442;28;20592;-54
2023/04/12 02:44:47;;;;;;;6.00;5.28;;;1.10;99.90;;;;;;5031412;28;20033;-57
2023/04/12 02:47:13;;;;;;;8.32;5.10;;;1.10;99.90;;;;;;5031068;28;20514;-58
2023/04/12 02:49:39;;;;;;;12.25;5.25;;;1.20;99.90;;;;;;5031380;28;20018;-59
2023/04/12 02:52:05;;;;;;;7.80;4.90;;;1.20;99.90;;;;;;5031333;28;20025;-57
2023/04/12 02:54:30;;;;;;;7.60;5.28;;;1.20;99.90;;;;;;5031286;28;20052;-59
2023/04/12 02:56:56;;;;;;;27.05;6.43;;;1.20;99.90;;;;;;5031306;28;20067;-57
2023/04/12 02:59:24;;;;;;;5.82;4.88;;;1.10;99.90;;;;;;5031295;28;20108;-57
2023/04/12 03:01:49;;;;;;;16.17;4.72;;;1.20;99.90;;;;;;5063289;28;20029;-55
2023/04/12 03:04:15;;;;;;;11.43;5.53;;;1.20;99.90;;;;;;5031102;28;20067;-56
2023/04/12 03:06:51;;;;;;;12.25;5.80;;;1.10;99.90;;;;;;5031463;28;20033;-52
2023/04/12 03:09:17;;;;;;;11.55;6.30;;;1.10;99.90;;;;;;5034039;28;20045;-56
2023/04/12 03:11:43;;;;;;;6.93;5.18;;;1.20;99.90;;;;;;5035187;28;20026;-57
2023/04/12 03:14:09;;;;;;;10.30;5.80;;;1.30;99.90;;;;;;5034745;28;20053;-58
2023/04/12 03:16:35;;;;;;;9.77;5.47;;;1.30;99.90;;;;;;5034892;28;20029;-57
2023/04/12 03:19:01;;;;;;;7.25;5.55;;;1.30;99.90;;;;;;5050256;28;20396;-57
2023/04/12 03:21:27;;;;;;;8.18;6.50;;;1.30;99.90;;;;;;5034915;28;20056;-57
2023/04/12 03:23:53;;;;;;;17.90;6.10;;;1.40;99.90;;;;;;5034892;28;20025;-55
2023/04/12 03:26:19;;;;;;;10.75;5.93;;;1.40;99.90;;;;;;5034852;28;20156;-53
2023/04/12 03:28:46;;;;;;;11.60;6.43;;;1.40;99.90;;;;;;5034838;28;20495;-58
2023/04/12 03:31:12;;;;;;;7.53;5.70;;;1.40;99.90;;;;;;5034564;28;20018;-58
2023/04/12 03:33:38;;;;;;;14.57;6.95;;;1.40;99.90;;;;;;5034747;28;20457;-58
2023/04/12 03:36:04;;;;;;;12.57;6.50;;;1.40;99.90;;;;;;5034375;28;20437;-58
2023/04/12 03:38:30;;;;;;;12.65;8.45;;;1.40;99.90;;;;;;5034689;28;20100;-58
2023/04/12 03:40:56;;;;;;;7.93;6.57;;;1.50;99.90;;;;;;5034468;28;20105;-59
2023/04/12 03:43:22;;;;;;;8.77;7.00;;;1.60;99.90;;;;;;5034017;28;20028;-59
2023/04/12 03:45:47;;;;;;;6.72;5.95;;;1.60;99.90;;;;;;5034409;28;20083;-57
2023/04/12 03:48:13;;;;;;;13.70;7.20;;;1.60;99.90;;;;;;5034584;28;20031;-57
2023/04/12 03:50:43;;;;;;;8.85;6.97;;;1.60;99.90;;;;;;5034378;28;20053;-54
2023/04/12 03:53:12;;;;;;;8.95;6.70;;;1.60;99.90;;;;;;5049427;28;20025;-59
2023/04/12 03:55:37;;;;;;;10.75;7.75;;;1.60;99.90;;;;;;5034223;28;20388;-57
2023/04/12 03:58:03;;;;;;;19.02;8.25;;;1.70;99.90;;;;;;5034148;28;20101;-56
2023/04/12 04:00:32;;;;;;;12.20;7.32;;;1.70;99.90;;;;;;5066292;28;20028;-57
2023/04/12 04:03:01;;;;;;;11.43;7.05;;;1.60;99.90;;;;;;5034057;28;20049;-56
2023/04/12 04:05:29;;;;;;;10.25;7.70;;;1.60;99.90;;;;;;5034185;28;20045;-58
2023/04/12 04:07:55;;;;;;;10.73;7.03;;;1.60;99.90;;;;;;5034170;28;20071;-54
2023/04/12 04:10:21;;;;;;;14.05;6.82;;;1.70;99.90;;;;;;5033545;28;20017;-57
2023/04/12 04:12:47;;;;;;;7.90;6.95;;;1.70;99.90;;;;;;5065655;28;20573;-54
2023/04/12 04:15:14;;;;;;;10.48;7.00;;;1.80;99.90;;;;;;5033061;28;20132;-58
2023/04/12 04:17:41;;;;;;;9.20;7.30;;;1.80;99.90;;;;;;5032980;28;20021;-57
2023/04/12 04:20:08;;;;;;;7.85;6.18;;;1.80;99.90;;;;;;5032090;28;20556;-58
2023/04/12 04:22:34;;;;;;;9.65;6.53;;;1.90;99.90;;;;;;5048947;28;20104;-59
2023/04/12 04:25:01;;;;;;;7.18;6.00;;;1.90;99.90;;;;;;5048340;28;20112;-53
2023/04/12 04:27:29;;;;;;;7.32;4.90;;;1.90;99.90;;;;;;5033404;28;20033;-53
2023/04/12 04:29:58;;;;;;;6.43;5.35;;;2.00;99.90;;;;;;5033414;28;20026;-58
2023/04/12 04:32:24;;;;;;;6.55;5.60;;;2.00;99.90;;;;;;5037936;28;20025;-57
2023/04/12 04:34:50;;;;;;;8.18;5.97;;;2.00;99.90;;;;;;5052970;28;20031;-59
2023/04/12 04:37:17;;;;;;;7.43;6.03;;;2.20;99.90;;;;;;5052367;28;20583;-58
2023/04/12 04:39:43;;;;;;;7.72;6.93;;;2.20;99.90;;;;;;5052333;28;20024;-59
2023/04/12 04:42:09;;;;;;;5.10;4.60;;;2.30;99.90;;;;;;5052160;28;20025;-56
2023/04/12 04:44:36;;;;;;;10.55;6.93;;;2.30;99.90;;;;;;5052899;28;20017;-57
2023/04/12 04:47:02;;;;;;;6.85;5.95;;;2.40;99.90;;;;;;5053128;28;20021;-55
2023/04/12 04:49:28;;;;;;;8.80;5.70;;;2.40;99.90;;;;;;5052439;28;20032;-52
2023/04/12 04:51:53;;;;;;;5.70;5.20;;;2.50;99.90;;;;;;5052346;28;20480;-58
2023/04/12 04:54:19;;;;;;;7.03;5.88;;;2.50;99.90;;;;;;5050992;28;20451;-58
2023/04/12 04:56:45;;;;;;;14.73;6.28;;;2.60;99.90;;;;;;5053016;28;20033;-58
2023/04/12 04:59:10;;;;;;;7.03;5.65;;;2.60;99.90;;;;;;5052809;28;20017;-55
2023/04/12 05:01:36;;;;;;;10.43;6.28;;;2.70;99.90;;;;;;5053126;28;20112;-55
2023/04/12 05:04:02;;;;;;;9.60;6.25;;;2.80;99.90;;;;;;5052881;28;20027;-55
2023/04/12 05:06:28;;;;;;;7.28;5.57;;;2.80;99.90;;;;;;5052834;28;20090;-58
2023/04/12 05:08:55;;;;;;;9.55;6.15;;;2.80;99.90;;;;;;5052848;28;20029;-57
2023/04/12 05:11:20;;;;;;;9.05;5.70;;;2.80;99.90;;;;;;5052610;28;20116;-56
2023/04/12 05:13:46;;;;;;;8.45;5.65;;;2.90;99.90;;;;;;5052401;28;20124;-54
2023/04/12 05:16:12;;;;;;;6.00;4.43;;;2.90;99.90;;;;;;5052571;28;20029;-60
2023/04/12 05:18:37;;;;;;;8.65;6.53;;;3.00;99.90;;;;;;5052655;28;20025;-57
2023/04/12 05:21:04;;;;;;;12.75;6.55;;;3.00;99.90;;;;;;5052482;28;20395;-58
2023/04/12 05:23:41;;;;;;;9.68;6.32;;;3.10;99.90;;;;;;5052591;28;20415;-59
2023/04/12 05:26:06;;;;;;;9.52;5.45;;;3.20;99.90;;;;;;5052298;28;20098;-59
2023/04/12 05:28:32;;;;;;;6.32;5.20;;;3.30;99.90;;;;;;5052460;28;20067;-59
2023/04/12 05:30:58;;;;;;;9.23;5.72;;;3.40;99.90;;;;;;5052097;28;20029;-58
2023/04/12 05:33:23;;;;;;;7.07;5.40;;;3.50;99.90;;;;;;5051832;28;20123;-59
2023/04/12 05:35:49;;;;;;;9.00;5.45;;;3.60;99.90;;;;;;5050759;28;20025;-59
2023/04/12 05:38:15;;;;;;;7.30;5.78;;;3.80;99.90;;;;;;5052223;28;20027;-59
2023/04/12 05:40:42;;;;;;;11.15;6.78;;;3.90;99.90;;;;;;5052209;28;20100;-59
2023/04/12 05:43:11;;;;;;;9.55;7.55;;;4.00;99.90;;;;;;5051964;28;20023;-59
2023/04/12 05:45:40;;;;;;;9.55;5.68;;;4.10;99.90;;;;;;5052225;28;20108;-59
2023/04/12 05:48:06;;;;;;;12.73;6.78;;;4.20;99.90;;;;;;5052073;28;20420;-59
2023/04/12 05:50:32;;;;;;;7.13;4.90;;;4.30;99.90;;;;;;5050744;28;20033;-58
2023/04/12 05:53:00;;;;;;;5.57;4.45;;;4.50;99.90;;;;;;5052099;28;20525;-59
2023/04/12 05:55:29;;;;;;;7.53;4.93;;;4.80;99.90;;;;;;5052009;28;20021;-59
2023/04/12 05:57:56;;;;;;;5.88;4.85;;;4.90;99.90;;;;;;5052077;28;20051;-59
2023/04/12 06:00:22;;;;;;;7.43;5.53;;;5.00;99.90;;;;;;5050632;28;20502;-59
2023/04/12 06:02:49;;;;;;;6.85;5.15;;;5.20;99.90;;;;;;5051814;28;20048;-59
2023/04/12 06:05:16;;;;;;;6.10;5.50;;;5.20;99.90;;;;;;5051700;28;20025;-59
2023/04/12 06:07:45;;;;;;;7.43;6.03;;;5.20;99.90;;;;;;5051955;28;20021;-59
2023/04/12 06:10:14;;;;;;;10.07;6.25;;;5.10;99.90;;;;;;5051593;28;20037;-57
2023/04/12 06:12:40;;;;;;;11.13;6.35;;;5.20;99.90;;;;;;5051700;28;20377;-59
2023/04/12 06:15:06;;;;;;;12.23;6.38;;;5.30;99.90;;;;;;5051527;28;20037;-59
2023/04/12 06:17:32;;;;;;;7.20;5.90;;;5.50;99.90;;;;;;5051489;28;20147;-59
2023/04/12 06:19:57;;;;;;;12.05;6.38;;;5.60;99.90;;;;;;5051796;28;20107;-59
2023/04/12 06:22:23;;;;;;;8.30;5.60;;;5.80;99.90;;;;;;5051677;28;20022;-59
2023/04/12 06:24:49;;;;;;;16.90;7.63;;;6.10;99.90;;;;;;5051588;28;20040;-59
2023/04/12 06:27:15;;;;;;;7.88;6.40;;;6.20;99.90;;;;;;5051572;28;20021;-59
2023/04/12 06:29:41;;;;;;;8.38;6.72;;;6.40;99.90;;;;;;5051704;28;20492;-60
2023/04/12 06:32:06;;;;;;;11.60;7.85;;;6.50;99.90;;;;;;5051328;28;20098;-59
2023/04/12 06:34:32;;;;;;;12.05;6.72;;;6.70;99.90;;;;;;5051570;28;20033;-59
2023/04/12 06:36:58;;;;;;;9.52;6.47;;;6.80;99.90;;;;;;5051813;28;20622;-58
2023/04/12 06:39:24;;;;;;;136.07;66.82;;;7.00;99.90;;;;;;5051320;28;20023;-59
2023/04/12 06:41:50;;;;;;;44.17;25.25;;;7.00;99.90;;;;;;5050772;28;20375;-59
2023/04/12 06:44:16;;;;;;;14.68;8.32;;;7.20;99.90;;;;;;5053603;28;20027;-59
2023/04/12 06:46:41;;;;;;;9.65;6.95;;;7.10;99.90;;;;;;5053846;28;20029;-60
2023/04/12 06:49:07;;;;;;;13.00;8.68;;;7.20;99.90;;;;;;5056217;28;20132;-59
2023/04/12 06:51:35;;;;;;;13.07;8.27;;;7.20;99.90;;;;;;5054865;28;20320;-58
2023/04/12 06:54:01;;;;;;;10.18;7.25;;;7.20;99.90;;;;;;5052915;28;20018;-59
2023/04/12 06:56:27;;;;;;;10.60;7.20;;;7.20;99.90;;;;;;5053917;28;20035;-59
2023/04/12 06:58:52;;;;;;;14.43;9.20;;;7.20;99.90;;;;;;5053754;28;20480;-59
2023/04/12 07:01:18;;;;;;;8.68;6.78;;;7.30;99.90;;;;;;5053745;28;20021;-58
2023/04/12 07:03:44;;;;;;;12.38;7.50;;;7.30;99.90;;;;;;5054036;28;20017;-59
2023/04/12 07:06:10;;;;;;;11.60;7.65;;;7.30;99.90;;;;;;5054058;28;20100;-59
2023/04/12 07:08:36;;;;;;;11.15;6.57;;;7.50;99.90;;;;;;5054040;28;20476;-59
2023/04/12 07:11:02;;;;;;;10.23;7.00;;;7.60;99.90;;;;;;5053766;28;20021;-60
2023/04/12 07:13:28;;;;;;;12.02;6.82;;;7.70;99.90;;;;;;5053824;28;20043;-59
2023/04/12 07:15:54;;;;;;;9.38;7.60;;;7.90;99.90;;;;;;5053705;28;20108;-60
2023/04/12 07:18:20;;;;;;;11.70;6.90;;;7.90;99.90;;;;;;5053539;28;20099;-60
2023/04/12 07:20:53;;;;;;;8.98;6.55;;;8.00;99.90;;;;;;5053745;28;20451;-60
2023/04/12 07:23:19;;;;;;;8.23;6.37;;;7.80;99.90;;;;;;5053724;28;20120;-59
2023/04/12 07:25:44;;;;;;;14.43;6.55;;;7.90;99.90;;;;;;5053661;28;20104;-60
2023/04/12 07:28:10;;;;;;;12.32;6.60;;;8.10;99.90;;;;;;5053619;28;20392;-60
2023/04/12 07:30:38;;;;;;;13.43;6.32;;;8.20;99.90;;;;;;5053568;28;20497;-59
2023/04/12 07:33:04;;;;;;;10.57;6.18;;;8.30;99.90;;;;;;5053324;28;20040;-60
2023/04/12 07:35:31;;;;;;;11.65;6.10;;;8.30;99.90;;;;;;5053468;28;20029;-59
2023/04/12 07:37:57;;;;;;;13.63;5.88;;;8.50;99.90;;;;;;5052277;28;20069;-60
2023/04/12 07:40:23;;;;;;;11.10;5.78;;;8.50;99.90;;;;;;5053278;28;20025;-57
2023/04/12 07:42:49;;;;;;;12.40;6.32;;;8.60;99.90;;;;;;5053269;28;20287;-59
2023/04/12 07:45:15;;;;;;;8.27;5.78;;;8.50;99.90;;;;;;5053258;28;20052;-59
2023/04/12 07:47:41;;;;;;;9.95;5.00;;;8.60;99.90;;;;;;5053169;28;20076;-60
2023/04/12 07:50:07;;;;;;;6.38;4.57;;;8.90;99.90;;;;;;5053165;28;20040;-60
2023/04/12 07:52:33;;;;;;;8.43;4.75;;;8.90;99.90;;;;;;5052838;28;20040;-59
2023/04/12 07:54:59;;;;;;;5.80;4.35;;;9.00;99.90;;;;;;5051773;28;20391;-59
2023/04/12 07:57:25;;;;;;;10.45;4.90;;;9.10;99.90;;;;;;5053109;28;20020;-57
2023/04/12 07:59:51;;;;;;;6.05;4.63;;;9.20;99.90;;;;;;5053009;28;20052;-59
2023/04/12 08:02:23;;;;;;;15.25;6.53;;;9.30;99.90;;;;;;5051350;28;20071;-59
2023/04/12 08:04:55;;;;;;;7.05;5.57;;;9.30;99.90;;;;;;5053058;28;20111;-59
2023/04/12 08:07:22;;;;;;;8.13;5.50;;;9.00;99.90;;;;;;5052764;28;20282;-59
2023/04/12 08:09:48;;;;;;;8.95;5.93;;;8.90;99.90;;;;;;5052827;28;20013;-60
2023/04/12 08:12:14;;;;;;;8.35;6.13;;;8.80;99.90;;;;;;5052623;28;20043;-59
2023/04/12 08:14:40;;;;;;;75.25;37.33;;;8.70;99.90;;;;;;5052680;28;20045;-60
2023/04/12 08:17:06;;;;;;;26.45;16.45;;;8.70;99.90;;;;;;5052515;28;20039;-59
2023/04/12 08:19:31;;;;;;;26.52;17.33;;;8.60;99.90;;;;;;5052713;28;20031;-59
2023/04/12 08:21:57;;;;;;;12.75;7.15;;;8.50;99.90;;;;;;5052541;28;20063;-58
2023/04/12 08:24:23;;;;;;;12.73;8.73;;;8.50;99.90;;;;;;5052471;28;20029;-60
2023/04/12 08:26:50;;;;;;;12.48;7.85;;;8.60;99.90;;;;;;5052323;28;20032;-60
2023/04/12 08:29:16;;;;;;;8.90;5.78;;;8.70;99.90;;;;;;5052384;28;20055;-60
2023/04/12 08:31:42;;;;;;;12.88;9.05;;;8.80;99.90;;;;;;5052621;28;20116;-60
2023/04/12 08:34:08;;;;;;;7.50;5.60;;;9.10;99.90;;;;;;5052286;28;20513;-60
2023/04/12 08:36:33;;;;;;;12.18;5.30;;;9.10;99.90;;;;;;5052235;28;20025;-60
2023/04/12 08:39:00;;;;;;;8.80;5.18;;;9.20;99.90;;;;;;5052094;28;20025;-60
2023/04/12 08:41:26;;;;;;;6.70;4.75;;;9.50;99.90;;;;;;5052284;28;20017;-59
2023/04/12 08:43:52;;;;;;;8.27;4.60;;;9.40;99.90;;;;;;5050907;28;20021;-60
2023/04/12 08:46:18;;;;;;;7.40;5.10;;;9.60;99.90;;;;;;5051848;28;20029;-59
2023/04/12 08:48:48;;;;;;;21.38;12.48;;;9.80;99.90;;;;;;5050961;28;20064;-60
2023/04/12 08:51:18;;;;;;;8.15;6.18;;;9.70;99.90;;;;;;5051992;28;20021;-58
2023/04/12 08:53:44;;;;;;;8.52;7.03;;;9.90;99.90;;;;;;5051831;28;20017;-59
2023/04/12 08:56:11;;;;;;;12.10;9.10;;;10.20;99.90;;;;;;5051808;28;20056;-60
2023/04/12 08:58:43;;;;;;;8.20;6.30;;;10.40;99.90;;;;;;5051925;28;20055;-58
2023/04/12 09:01:14;;;;;;;6.85;5.47;;;10.50;99.90;;;;;;5051787;28;20478;-60
2023/04/12 09:03:42;;;;;;;13.43;5.07;;;10.50;99.90;;;;;;5051563;28;20100;-60
2023/04/12 09:06:08;;;;;;;9.75;5.43;;;10.80;99.90;;;;;;5051415;28;20434;-60
2023/04/12 09:08:34;;;;;;;5.78;4.78;;;11.00;99.90;;;;;;5050448;28;20357;-59
2023/04/12 09:10:59;;;;;;;10.38;5.47;;;10.60;99.90;;;;;;5051386;28;20033;-59
2023/04/12 09:13:33;;;;;;;6.55;4.65;;;10.80;99.90;;;;;;5051589;28;20095;-60
2023/04/12 09:15:59;;;;;;;7.38;5.07;;;10.70;99.90;;;;;;5051594;28;20021;-60
2023/04/12 09:18:26;;;;;;;14.20;5.35;;;11.10;99.90;;;;;;5051409;28;20044;-59
2023/04/12 09:21:08;;;;;;;8.05;4.80;;;11.50;99.90;;;;;;5051329;28;20471;-60
2023/04/12 09:23:37;;;;;;;9.10;4.60;;;11.70;99.90;;;;;;5051218;28;20025;-59
2023/04/12 09:26:03;;;;;;;24.25;16.15;;;11.80;99.90;;;;;;5051331;28;20017;-59
2023/04/12 09:28:29;;;;;;;9.23;4.65;;;11.80;99.90;;;;;;5051524;28;20029;-60
2023/04/12 09:30:57;;;;;;;8.50;4.60;;;11.90;99.90;;;;;;5051228;28;20444;-60
2023/04/12 09:33:33;;;;;;;8.60;4.72;;;11.90;99.90;;;;;;5050720;28;20544;-58
2023/04/12 09:36:01;;;;;;;11.65;6.78;;;12.00;99.90;;;;;;5051105;28;20024;-60
2023/04/12 09:38:27;;;;;;;8.77;4.88;;;11.90;99.90;;;;;;5051154;28;20036;-60
2023/04/12 09:40:53;;;;;;;6.32;4.28;;;11.90;99.90;;;;;;5050904;28;20498;-60
2023/04/12 09:43:34;;;;;;;9.00;4.30;;;11.90;99.90;;;;;;5050636;28;20112;-59
2023/04/12 09:46:13;;;;;;;9.82;3.95;;;12.00;99.90;;;;;;5050965;28;20030;-60
2023/04/12 09:48:39;;;;;;;7.95;3.80;;;12.60;99.90;;;;;;5051035;28;20105;-59
2023/04/12 09:51:06;;;;;;;9.90;4.10;;;12.80;99.90;;;;;;5050914;28;20112;-60
2023/04/12 09:53:34;;;;;;;12.68;4.38;;;12.90;99.90;;;;;;5050661;28;20021;-59
2023/04/12 09:56:02;;;;;;;5.28;3.70;;;13.10;99.90;;;;;;5050825;28;20025;-60
2023/04/12 09:58:31;;;;;;;6.20;4.07;;;12.90;99.90;;;;;;5050815;28;20088;-57
2023/04/12 10:01:00;;;;;;;6.63;3.83;;;12.70;99.90;;;;;;5050734;28;20017;-60
2023/04/12 10:03:26;;;;;;;5.65;3.90;;;13.10;99.80;;;;;;5049482;28;20063;-60
2023/04/12 10:05:54;;;;;;;6.38;3.88;;;13.20;98.80;;;;;;5050879;28;20021;-60
2023/04/12 10:08:21;;;;;;;7.43;3.85;;;13.30;99.70;;;;;;5050475;28;20399;-60
2023/04/12 10:10:47;;;;;;;5.45;3.20;;;13.50;98.30;;;;;;5050468;28;20032;-59
2023/04/12 10:13:13;;;;;;;7.03;3.95;;;13.50;97.10;;;;;;5050272;28;20106;-60
2023/04/12 10:15:40;;;;;;;6.53;3.75;;;14.20;94.10;;;;;;5050364;28;20032;-60
2023/04/12 10:18:07;;;;;;;8.98;3.47;;;15.00;96.00;;;;;;5049757;28;20029;-60
2023/04/12 10:20:32;;;;;;;6.45;4.38;;;15.40;92.70;;;;;;5050533;28;20017;-59
2023/04/12 10:22:58;;;;;;;5.35;3.28;;;15.70;96.50;;;;;;5050416;28;20104;-60
2023/04/12 10:25:26;;;;;;;8.73;3.30;;;16.30;93.80;;;;;;5049145;28;20494;-60
2023/04/12 10:27:52;;;;;;;8.50;3.28;;;16.20;91.70;;;;;;5050495;28;20025;-60
2023/04/12 10:30:28;;;;;;;7.65;3.28;;;16.00;91.80;;;;;;5050224;28;20097;-60
2023/04/12 10:33:03;;;;;;;8.30;3.60;;;15.60;91.50;;;;;;5050203;28;20411;-59
2023/04/12 10:35:47;;;;;;;4.32;3.20;;;14.80;95.40;;;;;;5050226;28;20434;-60
2023/04/12 10:38:14;;;;;;;8.43;3.88;;;14.60;93.50;;;;;;5050066;28;20017;-60
2023/04/12 10:41:08;;;;;;;6.95;3.88;;;14.40;94.00;;;;;;5050474;28;20032;-60
2023/04/12 10:43:34;;;;;;;7.53;4.32;;;14.00;96.30;;;;;;5050158;28;20098;-59
2023/04/12 10:46:03;;;;;;;9.45;4.00;;;14.10;95.30;;;;;;5050105;28;20468;-59
2023/04/12 10:48:32;;;;;;;6.15;3.95;;;13.80;96.60;;;;;;5050197;28;20767;-60
2023/04/12 10:51:24;;;;;;;9.60;5.10;;;13.60;97.40;;;;;;5050106;28;20541;-60
2023/04/12 10:54:13;;;;;;;5.68;3.63;;;13.80;96.90;;;;;;5048386;28;20044;-60
2023/04/12 10:56:41;;;;;;;7.35;4.40;;;13.70;97.70;;;;;;5049994;28;20080;-60
2023/04/12 10:59:08;;;;;;;6.68;4.20;;;13.90;97.40;;;;;;5050101;28;20062;-59
2023/04/12 11:01:34;;;;;;;5.60;4.20;;;13.60;98.70;;;;;;5048312;28;20427;-59
2023/04/12 11:04:21;;;;;;;10.30;4.90;;;13.70;98.10;;;;;;5049929;28;20029;-59
2023/04/12 11:06:55;;;;;;;7.47;4.18;;;13.70;97.80;;;;;;5050188;28;20025;-59
2023/04/12 11:09:26;;;;;;;7.93;4.32;;;13.80;98.20;;;;;;5050029;28;20017;-60
2023/04/12 11:12:04;;;;;;;7.07;3.90;;;13.50;97.90;;;;;;5050189;28;20063;-59
2023/04/12 11:14:50;;;;;;;10.45;3.88;;;13.30;99.90;;;;;;5049823;28;20052;-59
2023/04/12 11:17:16;;;;;;;9.23;5.60;;;13.50;99.90;;;;;;5050029;28;20060;-60
2023/04/12 11:19:50;;;;;;;8.80;5.50;;;13.10;1.00;;;;;;5049777;28;20048;-60
2023/04/12 11:22:18;;;;;;;8.45;4.60;;;13.10;99.90;;;;;;5049627;28;20026;-59
2023/04/12 11:24:49;;;;;;;10.60;5.13;;;13.30;99.90;;;;;;5048544;28;20017;-59
2023/04/12 11:27:15;;;;;;;7.95;4.78;;;12.90;99.90;;;;;;5050012;28;20071;-60
2023/04/12 11:29:42;;;;;;;8.23;5.50;;;12.90;99.90;;;;;;5050499;28;20024;-59
2023/04/12 11:32:14;;;;;;;9.57;4.93;;;13.00;1.00;;;;;;5053792;28;20014;-59
2023/04/12 11:34:42;;;;;;;5.53;4.10;;;13.30;99.90;;;;;;5052500;28;20025;-60
2023/04/12 11:37:14;;;;;;;10.82;4.38;;;13.50;1.00;;;;;;5053359;28;20551;-59
2023/04/12 11:39:44;;;;;;;5.50;4.50;;;13.50;99.90;;;;;;5053435;28;20021;-60
2023/04/12 11:42:14;;;;;;;10.73;5.63;;;13.80;56.80;;;;;;5053339;28;20103;-60
2023/04/12 11:44:41;;;;;;;7.07;5.50;;;13.90;1.00;;;;;;5053275;28;20020;-60
2023/04/12 11:47:22;;;;;;;7.88;3.95;;;13.90;99.90;;;;;;5053519;28;20393;-60
2023/04/12 11:49:50;;;;;;;7.38;3.95;;;13.60;1.00;;;;;;5053271;28;20028;-60
2023/04/12 11:52:17;;;;;;;12.55;5.78;;;13.60;1.00;;;;;;5052926;28;20021;-60
2023/04/12 11:54:44;;;;;;;25.05;9.85;;;13.90;93.60;;;;;;5053188;28;20408;-60
2023/04/12 11:57:12;;;;;;;26.83;10.43;;;14.00;52.10;;;;;;5052820;28;20021;-60
2023/04/12 11:59:38;;;;;;;10.63;4.43;;;14.20;99.90;;;;;;5052932;28;20044;-60
2023/04/12 12:02:06;;;;;;;9.27;3.85;;;14.20;1.00;;;;;;5052976;28;20082;-60
2023/04/12 12:04:31;;;;;;;4.13;3.05;;;14.60;1.00;;;;;;5052942;28;20021;-59
2023/04/12 12:06:58;;;;;;;2.40;1.60;;;14.90;1.00;;;;;;5052792;28;20036;-60
2023/04/12 12:09:26;;;;;;;6.72;2.40;;;15.40;1.00;;;;;;5051342;28;20405;-60
2023/04/12 12:11:54;;;;;;;2.80;2.30;;;15.60;1.00;;;;;;5052929;28;20033;-60
2023/04/12 12:14:23;;;;;;;17.50;12.30;;;15.20;99.90;;;;;;5052646;28;20068;-60
2023/04/12 12:16:56;;;;;;;6.18;4.25;;;15.00;1.00;;;;;;5052690;28;20483;-60
2023/04/12 12:19:35;;;;;;;8.23;5.57;;;14.80;99.90;;;;;;5052819;28;20063;-60
2023/04/12 12:22:17;;;;;;;6.85;4.55;;;14.50;99.90;;;;;;5052581;28;20492;-60
2023/04/12 12:24:58;;;;;;;6.15;2.50;;;15.10;99.90;;;;;;5052685;28;20025;-60
2023/04/12 12:27:33;;;;;;;3.08;1.90;;;16.00;1.00;;;;;;5052643;28;20023;-59
2023/04/12 12:30:01;;;;;;;4.82;1.90;;;16.30;99.90;;;;;;5052525;28;20476;-60
2023/04/12 12:32:35;;;;;;;4.05;1.90;;;16.50;1.00;;;;;;5051043;28;20017;-60
2023/04/12 12:35:02;;;;;;;2.67;1.85;;;17.20;99.90;;;;;;5052206;28;20524;-60
2023/04/12 12:37:29;;;;;;;6.32;1.70;;;17.40;1.00;;;;;;5052344;28;20570;-61
2023/04/12 12:40:12;;;;;;;2.65;1.55;;;17.30;99.90;;;;;;5052474;28;20024;-60
2023/04/12 12:43:01;;;;;;;4.22;2.45;;;16.90;99.90;;;;;;5051890;28;20032;-60
2023/04/12 12:45:30;;;;;;;1.40;1.02;;;17.00;99.90;;;;;;5052219;28;20032;-60
2023/04/12 12:47:59;;;;;;;7.15;5.65;;;16.40;99.90;;;;;;5052235;28;20084;-60
2023/04/12 12:50:27;;;;;;;7.78;1.98;;;16.70;1.00;;;;;;5050819;28;20479;-60
2023/04/12 12:52:54;;;;;;;13.13;1.60;;;16.80;1.00;;;;;;5052033;28;20024;-60
2023/04/12 12:55:22;;;;;;;4.53;1.42;;;16.50;1.00;;;;;;5050557;28;20037;-60
2023/04/12 12:57:50;;;;;;;1.55;1.42;;;16.00;99.90;;;;;;5051980;28;20504;-60
2023/04/12 13:00:17;;;;;;;7.72;2.17;;;15.60;1.00;;;;;;5051905;28;20041;-60
2023/04/12 13:02:43;;;;;;;6.78;1.70;;;15.60;99.90;;;;;;5052096;28;20029;-59
2023/04/12 13:05:10;;;;;;;2.85;1.77;;;15.40;99.90;;;;;;5051753;28;20439;-59
2023/04/12 13:07:36;;;;;;;4.43;1.40;;;15.30;99.90;;;;;;5051597;28;20017;-59
2023/04/12 13:10:03;;;;;;;2.67;1.45;;;15.40;1.00;;;;;;5051632;28;20052;-59
2023/04/12 13:12:28;;;;;;;4.65;3.20;;;15.00;99.90;;;;;;5050412;28;20029;-59
2023/04/12 13:14:55;;;;;;;26.35;18.80;;;14.70;99.90;;;;;;5051240;28;20045;-60
2023/04/12 13:17:21;;;;;;;3.22;2.25;;;14.60;1.00;;;;;;5051667;28;20032;-60